sensor_id;sensor_type;location;lat;lon;timestamp;pressure;altitude;pressure_sealevel;temperature
74750;BMP280;63269;53.330;-6.288;2023-08-06T00:00:38;101641.94;;;22.29
74750;BMP280;63269;53.330;-6.288;2023-08-06T00:03:03;101649.16;;;22.28
74750;BMP280;63269;53.330;-6.288;2023-08-06T00:05:29;101651.84;;;22.28
74750;BMP280;63269;53.330;-6.288;2023-08-06T00:07:54;101656.88;;;22.26
74750;BMP280;63269;53.330;-6.288;2023-08-06T00:10:20;101648.88;;;22.26
74750;BMP280;63269;53.330;-6.288;2023-08-06T00:12:45;101645.44;;;22.26
74750;BMP280;63269;53.330;-6.288;2023-08-06T00:15:11;101643.94;;;22.25
74750;BMP280;63269;53.330;-6.288;2023-08-06T00:17:37;101643.16;;;22.24
74750;BMP280;63269;53.330;-6.288;2023-08-06T00:20:03;101650.03;;;22.25
74750;BMP280;63269;53.330;-6.288;2023-08-06T00:22:36;101648.50;;;22.24
74750;BMP280;63269;53.330;-6.288;2023-08-06T00:25:03;101646.28;;;22.22
74750;BMP280;63269;53.330;-6.288;2023-08-06T00:27:29;101637.06;;;22.23
74750;BMP280;63269;53.330;-6.288;2023-08-06T00:29:54;101640.50;;;22.24
74750;BMP280;63269;53.330;-6.288;2023-08-06T00:32:20;101646.59;;;22.25
74750;BMP280;63269;53.330;-6.288;2023-08-06T00:34:45;101651.53;;;22.26
74750;BMP280;63269;53.330;-6.288;2023-08-06T00:37:11;101656.44;;;22.28
74750;BMP280;63269;53.330;-6.288;2023-08-06T00:39:36;101655.28;;;22.29
74750;BMP280;63269;53.330;-6.288;2023-08-06T00:42:02;101656.34;;;22.31
74750;BMP280;63269;53.330;-6.288;2023-08-06T00:44:27;101657.84;;;22.32
74750;BMP280;63269;53.330;-6.288;2023-08-06T00:46:53;101661.59;;;22.35
74750;BMP280;63269;53.330;-6.288;2023-08-06T00:49:18;101656.25;;;22.35
74750;BMP280;63269;53.330;-6.288;2023-08-06T00:51:45;101659.69;;;22.35
74750;BMP280;63269;53.330;-6.288;2023-08-06T00:54:12;101662.34;;;22.35
74750;BMP280;63269;53.330;-6.288;2023-08-06T00:56:37;101657.34;;;22.37
74750;BMP280;63269;53.330;-6.288;2023-08-06T00:59:04;101658.53;;;22.36
74750;BMP280;63269;53.330;-6.288;2023-08-06T01:01:31;101667.63;;;22.39
74750;BMP280;63269;53.330;-6.288;2023-08-06T01:03:56;101659.59;;;22.39
74750;BMP280;63269;53.330;-6.288;2023-08-06T01:06:51;101662.25;;;22.39
74750;BMP280;63269;53.330;-6.288;2023-08-06T01:09:45;101664.94;;;22.39
74750;BMP280;63269;53.330;-6.288;2023-08-06T01:12:30;101662.72;;;22.37
74750;BMP280;63269;53.330;-6.288;2023-08-06T01:15:13;101658.84;;;22.38
74750;BMP280;63269;53.330;-6.288;2023-08-06T01:17:40;101658.53;;;22.36
74750;BMP280;63269;53.330;-6.288;2023-08-06T01:20:06;101650.91;;;22.35
74750;BMP280;63269;53.330;-6.288;2023-08-06T01:22:32;101655.84;;;22.36
74750;BMP280;63269;53.330;-6.288;2023-08-06T01:24:57;101658.53;;;22.36
74750;BMP280;63269;53.330;-6.288;2023-08-06T01:27:30;101662.25;;;22.39
74750;BMP280;63269;53.330;-6.288;2023-08-06T01:30:07;101648.91;;;22.39
74750;BMP280;63269;53.330;-6.288;2023-08-06T01:32:39;101649.75;;;22.36
74750;BMP280;63269;53.330;-6.288;2023-08-06T01:35:09;101654.69;;;22.37
74750;BMP280;63269;53.330;-6.288;2023-08-06T01:37:36;101669.53;;;22.38
74750;BMP280;63269;53.330;-6.288;2023-08-06T01:40:06;101668.34;;;22.39
74750;BMP280;63269;53.330;-6.288;2023-08-06T01:42:32;101669.53;;;22.38
74750;BMP280;63269;53.330;-6.288;2023-08-06T01:44:57;101672.22;;;22.38
74750;BMP280;63269;53.330;-6.288;2023-08-06T01:47:23;101669.94;;;22.37
74750;BMP280;63269;53.330;-6.288;2023-08-06T01:49:48;101666.94;;;22.35
74750;BMP280;63269;53.330;-6.288;2023-08-06T01:52:13;101678.09;;;22.33
74750;BMP280;63269;53.330;-6.288;2023-08-06T01:54:39;101677.31;;;22.33
74750;BMP280;63269;53.330;-6.288;2023-08-06T01:57:05;101681.16;;;22.32
74750;BMP280;63269;53.330;-6.288;2023-08-06T01:59:30;101680.41;;;22.31
74750;BMP280;63269;53.330;-6.288;2023-08-06T02:01:56;101678.16;;;22.30
74750;BMP280;63269;53.330;-6.288;2023-08-06T02:04:21;101685.44;;;22.29
74750;BMP280;63269;53.330;-6.288;2023-08-06T02:06:47;101684.69;;;22.29
74750;BMP280;63269;53.330;-6.288;2023-08-06T02:09:12;101683.91;;;22.28
74750;BMP280;63269;53.330;-6.288;2023-08-06T02:11:37;101687.75;;;22.27
74750;BMP280;63269;53.330;-6.288;2023-08-06T02:14:03;101682.41;;;22.27
74750;BMP280;63269;53.330;-6.288;2023-08-06T02:16:28;101686.28;;;22.26
74750;BMP280;63269;53.330;-6.288;2023-08-06T02:18:53;101686.28;;;22.26
74750;BMP280;63269;53.330;-6.288;2023-08-06T02:21:19;101680.94;;;22.26
74750;BMP280;63269;53.330;-6.288;2023-08-06T02:23:44;101687.44;;;22.25
74750;BMP280;63269;53.330;-6.288;2023-08-06T02:26:10;101682.50;;;22.23
74750;BMP280;63269;53.330;-6.288;2023-08-06T02:28:35;101681.44;;;22.21
74750;BMP280;63269;53.330;-6.288;2023-08-06T02:31:00;101682.59;;;22.20
74750;BMP280;63269;53.330;-6.288;2023-08-06T02:33:26;101682.59;;;22.20
74750;BMP280;63269;53.330;-6.288;2023-08-06T02:35:58;101680.69;;;22.20
74750;BMP280;63269;53.330;-6.288;2023-08-06T02:38:24;101681.84;;;22.19
74750;BMP280;63269;53.330;-6.288;2023-08-06T02:40:50;101681.84;;;22.19
74750;BMP280;63269;53.330;-6.288;2023-08-06T02:43:15;101680.34;;;22.18
74750;BMP280;63269;53.330;-6.288;2023-08-06T02:45:40;101683.03;;;22.18
74750;BMP280;63269;53.330;-6.288;2023-08-06T02:48:06;101686.09;;;22.17
74750;BMP280;63269;53.330;-6.288;2023-08-06T02:50:37;101681.16;;;22.15
74750;BMP280;63269;53.330;-6.288;2023-08-06T02:53:03;101673.91;;;22.16
74750;BMP280;63269;53.330;-6.288;2023-08-06T02:55:28;101670.50;;;22.15
74750;BMP280;63269;53.330;-6.288;2023-08-06T02:57:53;101672.41;;;22.15
74750;BMP280;63269;53.330;-6.288;2023-08-06T03:00:19;101678.94;;;22.14
74750;BMP280;63269;53.330;-6.288;2023-08-06T03:02:44;101666.72;;;22.13
74750;BMP280;63269;53.330;-6.288;2023-08-06T03:05:09;101671.34;;;22.12
74750;BMP280;63269;53.330;-6.288;2023-08-06T03:07:35;101668.66;;;22.12
74750;BMP280;63269;53.330;-6.288;2023-08-06T03:10:02;101668.66;;;22.12
74750;BMP280;63269;53.330;-6.288;2023-08-06T03:12:27;101666.41;;;22.11
74750;BMP280;63269;53.330;-6.288;2023-08-06T03:14:52;101662.97;;;22.10
74750;BMP280;63269;53.330;-6.288;2023-08-06T03:17:18;101663.72;;;22.11
74750;BMP280;63269;53.330;-6.288;2023-08-06T03:19:43;101664.16;;;22.09
74750;BMP280;63269;53.330;-6.288;2023-08-06T03:22:09;101658.06;;;22.09
74750;BMP280;63269;53.330;-6.288;2023-08-06T03:24:34;101661.50;;;22.09
74750;BMP280;63269;53.330;-6.288;2023-08-06T03:26:59;101658.06;;;22.09
74750;BMP280;63269;53.330;-6.288;2023-08-06T03:29:25;101666.06;;;22.09
74750;BMP280;63269;53.330;-6.288;2023-08-06T03:31:51;101666.06;;;22.09
74750;BMP280;63269;53.330;-6.288;2023-08-06T03:34:17;101671.81;;;22.07
74750;BMP280;63269;53.330;-6.288;2023-08-06T03:36:42;101672.59;;;22.08
74750;BMP280;63269;53.330;-6.288;2023-08-06T03:39:08;101672.59;;;22.08
74750;BMP280;63269;53.330;-6.288;2023-08-06T03:41:33;101666.91;;;22.06
74750;BMP280;63269;53.330;-6.288;2023-08-06T03:43:58;101666.91;;;22.06
74750;BMP280;63269;53.330;-6.288;2023-08-06T03:46:26;101674.19;;;22.05
74750;BMP280;63269;53.330;-6.288;2023-08-06T03:48:51;101666.91;;;22.06
74750;BMP280;63269;53.330;-6.288;2023-08-06T03:51:16;101666.91;;;22.06
74750;BMP280;63269;53.330;-6.288;2023-08-06T03:53:42;101661.97;;;22.04
74750;BMP280;63269;53.330;-6.288;2023-08-06T03:56:07;101661.97;;;22.04
74750;BMP280;63269;53.330;-6.288;2023-08-06T03:58:33;101663.91;;;22.03
74750;BMP280;63269;53.330;-6.288;2023-08-06T04:01:02;101664.34;;;22.02
74750;BMP280;63269;53.330;-6.288;2023-08-06T04:03:28;101673.09;;;22.02
74750;BMP280;63269;53.330;-6.288;2023-08-06T04:05:54;101663.56;;;22.01
74750;BMP280;63269;53.330;-6.288;2023-08-06T04:08:19;101660.16;;;22.01
74750;BMP280;63269;53.330;-6.288;2023-08-06T04:10:45;101660.16;;;22.01
74750;BMP280;63269;53.330;-6.288;2023-08-06T04:13:10;101666.66;;;22.00
74750;BMP280;63269;53.330;-6.288;2023-08-06T04:15:36;101671.25;;;21.99
74750;BMP280;63269;53.330;-6.288;2023-08-06T04:18:01;101671.69;;;21.98
74750;BMP280;63269;53.330;-6.288;2023-08-06T04:20:27;101672.44;;;21.98
74750;BMP280;63269;53.330;-6.288;2023-08-06T04:22:54;101670.50;;;21.99
74750;BMP280;63269;53.330;-6.288;2023-08-06T04:25:20;101675.09;;;21.98
74750;BMP280;63269;53.330;-6.288;2023-08-06T04:27:49;101678.53;;;21.99
74750;BMP280;63269;53.330;-6.288;2023-08-06T04:30:14;101675.09;;;21.98
74750;BMP280;63269;53.330;-6.288;2023-08-06T04:32:40;101675.09;;;21.98
74750;BMP280;63269;53.330;-6.288;2023-08-06T04:35:06;101683.53;;;21.97
74750;BMP280;63269;53.330;-6.288;2023-08-06T04:37:32;101681.59;;;21.97
74750;BMP280;63269;53.330;-6.288;2023-08-06T04:39:57;101681.59;;;21.97
74750;BMP280;63269;53.330;-6.288;2023-08-06T04:42:23;101688.88;;;21.97
74750;BMP280;63269;53.330;-6.288;2023-08-06T04:44:48;101688.88;;;21.97
74750;BMP280;63269;53.330;-6.288;2023-08-06T04:47:14;101679.34;;;21.96
74750;BMP280;63269;53.330;-6.288;2023-08-06T04:49:39;101679.34;;;21.96
74750;BMP280;63269;53.330;-6.288;2023-08-06T04:52:05;101679.34;;;21.96
74750;BMP280;63269;53.330;-6.288;2023-08-06T04:54:30;101685.13;;;21.94
74750;BMP280;63269;53.330;-6.288;2023-08-06T04:56:56;101685.13;;;21.94
74750;BMP280;63269;53.330;-6.288;2023-08-06T04:59:21;101687.06;;;21.94
74750;BMP280;63269;53.330;-6.288;2023-08-06T05:01:47;101687.06;;;21.94
74750;BMP280;63269;53.330;-6.288;2023-08-06T05:04:12;101689.72;;;21.94
74750;BMP280;63269;53.330;-6.288;2023-08-06T05:06:37;101689.72;;;21.94
74750;BMP280;63269;53.330;-6.288;2023-08-06T05:09:06;101691.66;;;21.93
74750;BMP280;63269;53.330;-6.288;2023-08-06T05:11:32;101697.00;;;21.93
74750;BMP280;63269;53.330;-6.288;2023-08-06T05:13:57;101708.84;;;21.92
74750;BMP280;63269;53.330;-6.288;2023-08-06T05:16:23;101708.84;;;21.92
74750;BMP280;63269;53.330;-6.288;2023-08-06T05:18:49;101709.97;;;21.91
74750;BMP280;63269;53.330;-6.288;2023-08-06T05:21:14;101709.97;;;21.91
74750;BMP280;63269;53.330;-6.288;2023-08-06T05:23:41;101715.34;;;21.91
74750;BMP280;63269;53.330;-6.288;2023-08-06T05:26:07;101715.34;;;21.91
74750;BMP280;63269;53.330;-6.288;2023-08-06T05:28:32;101709.69;;;21.89
74750;BMP280;63269;53.330;-6.288;2023-08-06T05:30:57;101704.34;;;21.89
74750;BMP280;63269;53.330;-6.288;2023-08-06T05:33:23;101707.75;;;21.90
74750;BMP280;63269;53.330;-6.288;2023-08-06T05:35:49;101708.16;;;21.88
74750;BMP280;63269;53.330;-6.288;2023-08-06T05:38:14;101715.03;;;21.89
74750;BMP280;63269;53.330;-6.288;2023-08-06T05:40:40;101718.09;;;21.88
74750;BMP280;63269;53.330;-6.288;2023-08-06T05:43:05;101720.00;;;21.87
74750;BMP280;63269;53.330;-6.288;2023-08-06T05:45:31;101721.94;;;21.87
74750;BMP280;63269;53.330;-6.288;2023-08-06T05:47:56;101721.94;;;21.87
74750;BMP280;63269;53.330;-6.288;2023-08-06T05:50:23;101729.53;;;21.88
74750;BMP280;63269;53.330;-6.288;2023-08-06T05:52:48;101729.53;;;21.88
74750;BMP280;63269;53.330;-6.288;2023-08-06T05:55:14;101727.25;;;21.87
74750;BMP280;63269;53.330;-6.288;2023-08-06T05:57:39;101720.44;;;21.86
74750;BMP280;63269;53.330;-6.288;2023-08-06T06:00:05;101729.94;;;21.87
74750;BMP280;63269;53.330;-6.288;2023-08-06T06:02:31;101729.19;;;21.86
74750;BMP280;63269;53.330;-6.288;2023-08-06T06:04:57;101729.19;;;21.86
74750;BMP280;63269;53.330;-6.288;2023-08-06T06:07:22;101736.47;;;21.86
74750;BMP280;63269;53.330;-6.288;2023-08-06T06:09:48;101735.72;;;21.85
74750;BMP280;63269;53.330;-6.288;2023-08-06T06:12:14;101740.63;;;21.87
74750;BMP280;63269;53.330;-6.288;2023-08-06T06:14:39;101741.06;;;21.85
74750;BMP280;63269;53.330;-6.288;2023-08-06T06:17:05;101741.06;;;21.85
74750;BMP280;63269;53.330;-6.288;2023-08-06T06:19:30;101740.28;;;21.85
74750;BMP280;63269;53.330;-6.288;2023-08-06T06:21:56;101751.75;;;21.85
74750;BMP280;63269;53.330;-6.288;2023-08-06T06:24:22;101742.97;;;21.85
74750;BMP280;63269;53.330;-6.288;2023-08-06T06:26:48;101742.97;;;21.85
74750;BMP280;63269;53.330;-6.288;2023-08-06T06:29:13;101752.91;;;21.84
74750;BMP280;63269;53.330;-6.288;2023-08-06T06:31:39;101748.28;;;21.85
74750;BMP280;63269;53.330;-6.288;2023-08-06T06:34:04;101748.28;;;21.85
74750;BMP280;63269;53.330;-6.288;2023-08-06T06:36:30;101743.72;;;21.85
74750;BMP280;63269;53.330;-6.288;2023-08-06T06:38:55;101743.72;;;21.85
74750;BMP280;63269;53.330;-6.288;2023-08-06T06:41:20;101747.88;;;21.86
74750;BMP280;63269;53.330;-6.288;2023-08-06T06:43:46;101747.88;;;21.86
74750;BMP280;63269;53.330;-6.288;2023-08-06T06:46:11;101751.75;;;21.85
74750;BMP280;63269;53.330;-6.288;2023-08-06T06:48:36;101757.09;;;21.85
74750;BMP280;63269;53.330;-6.288;2023-08-06T06:51:02;101753.63;;;21.85
74750;BMP280;63269;53.330;-6.288;2023-08-06T06:53:28;101757.09;;;21.85
74750;BMP280;63269;53.330;-6.288;2023-08-06T06:56:01;101754.41;;;21.85
74750;BMP280;63269;53.330;-6.288;2023-08-06T06:58:27;101754.72;;;21.87
74750;BMP280;63269;53.330;-6.288;2023-08-06T07:00:52;101752.50;;;21.86
74750;BMP280;63269;53.330;-6.288;2023-08-06T07:03:19;101763.16;;;21.86
74750;BMP280;63269;53.330;-6.288;2023-08-06T07:05:45;101762.00;;;21.87
74750;BMP280;63269;53.330;-6.288;2023-08-06T07:08:10;101761.25;;;21.86
74750;BMP280;63269;53.330;-6.288;2023-08-06T07:10:36;101761.25;;;21.86
74750;BMP280;63269;53.330;-6.288;2023-08-06T07:13:02;101765.84;;;21.86
74750;BMP280;63269;53.330;-6.288;2023-08-06T07:15:27;101768.06;;;21.87
74750;BMP280;63269;53.330;-6.288;2023-08-06T07:17:52;101768.06;;;21.87
74750;BMP280;63269;53.330;-6.288;2023-08-06T07:20:18;101755.91;;;21.86
74750;BMP280;63269;53.330;-6.288;2023-08-06T07:22:44;101757.84;;;21.86
74750;BMP280;63269;53.330;-6.288;2023-08-06T07:25:09;101760.06;;;21.87
74750;BMP280;63269;53.330;-6.288;2023-08-06T07:27:35;101759.31;;;21.87
74750;BMP280;63269;53.330;-6.288;2023-08-06T07:30:00;101752.81;;;21.88
74750;BMP280;63269;53.330;-6.288;2023-08-06T07:32:26;101771.53;;;21.88
74750;BMP280;63269;53.330;-6.288;2023-08-06T07:34:53;101771.53;;;21.88
74750;BMP280;63269;53.330;-6.288;2023-08-06T07:37:22;101758.91;;;21.88
74750;BMP280;63269;53.330;-6.288;2023-08-06T07:39:48;101758.91;;;21.88
74750;BMP280;63269;53.330;-6.288;2023-08-06T07:42:13;101766.94;;;21.88
74750;BMP280;63269;53.330;-6.288;2023-08-06T07:44:39;101766.94;;;21.88
74750;BMP280;63269;53.330;-6.288;2023-08-06T07:47:05;101769.19;;;21.90
74750;BMP280;63269;53.330;-6.288;2023-08-06T07:49:30;101771.13;;;21.89
74750;BMP280;63269;53.330;-6.288;2023-08-06T07:51:56;101771.13;;;21.89
74750;BMP280;63269;53.330;-6.288;2023-08-06T07:54:21;101758.91;;;21.88
74750;BMP280;63269;53.330;-6.288;2023-08-06T07:56:47;101768.44;;;21.89
74750;BMP280;63269;53.330;-6.288;2023-08-06T07:59:12;101765.78;;;21.89
74750;BMP280;63269;53.330;-6.288;2023-08-06T08:01:38;101765.78;;;21.89
74750;BMP280;63269;53.330;-6.288;2023-08-06T08:04:03;101757.75;;;21.89
74750;BMP280;63269;53.330;-6.288;2023-08-06T08:06:30;101761.91;;;21.90
74750;BMP280;63269;53.330;-6.288;2023-08-06T08:08:55;101761.91;;;21.90
74750;BMP280;63269;53.330;-6.288;2023-08-06T08:11:20;101761.91;;;21.90
74750;BMP280;63269;53.330;-6.288;2023-08-06T08:13:46;101765.38;;;21.91
74750;BMP280;63269;53.330;-6.288;2023-08-06T08:16:11;101765.38;;;21.91
74750;BMP280;63269;53.330;-6.288;2023-08-06T08:18:37;101764.16;;;21.92
74750;BMP280;63269;53.330;-6.288;2023-08-06T08:21:02;101764.16;;;21.92
74750;BMP280;63269;53.330;-6.288;2023-08-06T08:23:28;101748.13;;;21.92
74750;BMP280;63269;53.330;-6.288;2023-08-06T08:25:53;101748.13;;;21.92
74750;BMP280;63269;53.330;-6.288;2023-08-06T08:28:19;101760.75;;;21.91
74750;BMP280;63269;53.330;-6.288;2023-08-06T08:30:44;101749.34;;;21.91
74750;BMP280;63269;53.330;-6.288;2023-08-06T08:33:10;101756.59;;;21.90
74750;BMP280;63269;53.330;-6.288;2023-08-06T08:35:36;101771.44;;;21.91
74750;BMP280;63269;53.330;-6.288;2023-08-06T08:38:01;101767.59;;;21.92
74750;BMP280;63269;53.330;-6.288;2023-08-06T08:40:31;101767.59;;;21.92
74750;BMP280;63269;53.330;-6.288;2023-08-06T08:42:57;101765.38;;;21.91
74750;BMP280;63269;53.330;-6.288;2023-08-06T08:45:26;101754.69;;;21.91
74750;BMP280;63269;53.330;-6.288;2023-08-06T08:47:54;101771.03;;;21.93
74750;BMP280;63269;53.330;-6.288;2023-08-06T08:50:19;101771.03;;;21.93
74750;BMP280;63269;53.330;-6.288;2023-08-06T08:52:45;101760.34;;;21.93
74750;BMP280;63269;53.330;-6.288;2023-08-06T08:55:11;101760.34;;;21.93
74750;BMP280;63269;53.330;-6.288;2023-08-06T08:57:37;101756.59;;;21.90
74750;BMP280;63269;53.330;-6.288;2023-08-06T09:00:03;101758.81;;;21.92
74750;BMP280;63269;53.330;-6.288;2023-08-06T09:02:28;101762.25;;;21.92
74750;BMP280;63269;53.330;-6.288;2023-08-06T09:04:57;101750.81;;;21.92
74750;BMP280;63269;53.330;-6.288;2023-08-06T09:07:27;101748.91;;;21.92
74750;BMP280;63269;53.330;-6.288;2023-08-06T09:09:53;101756.16;;;21.92
74750;BMP280;63269;53.330;-6.288;2023-08-06T09:12:19;101757.66;;;21.93
74750;BMP280;63269;53.330;-6.288;2023-08-06T09:14:44;101757.66;;;21.93
74750;BMP280;63269;53.330;-6.288;2023-08-06T09:17:10;101761.50;;;21.92
74750;BMP280;63269;53.330;-6.288;2023-08-06T09:19:36;101756.91;;;21.92
74750;BMP280;63269;53.330;-6.288;2023-08-06T09:22:02;101762.25;;;21.92
74750;BMP280;63269;53.330;-6.288;2023-08-06T09:24:27;101763.41;;;21.91
74750;BMP280;63269;53.330;-6.288;2023-08-06T09:26:53;101765.38;;;21.91
74750;BMP280;63269;53.330;-6.288;2023-08-06T09:29:19;101765.38;;;21.91
74750;BMP280;63269;53.330;-6.288;2023-08-06T09:31:47;101758.06;;;21.91
74750;BMP280;63269;53.330;-6.288;2023-08-06T09:34:20;101774.09;;;21.91
74750;BMP280;63269;53.330;-6.288;2023-08-06T09:36:51;101766.09;;;21.91
74750;BMP280;63269;53.330;-6.288;2023-08-06T09:39:18;101766.09;;;21.91
74750;BMP280;63269;53.330;-6.288;2023-08-06T09:41:45;101775.28;;;21.90
74750;BMP280;63269;53.330;-6.288;2023-08-06T09:44:21;101776.38;;;21.93
74750;BMP280;63269;53.330;-6.288;2023-08-06T09:46:50;101776.38;;;21.93
74750;BMP280;63269;53.330;-6.288;2023-08-06T09:49:17;101777.50;;;21.92
74750;BMP280;63269;53.330;-6.288;2023-08-06T09:51:43;101777.50;;;21.92
74750;BMP280;63269;53.330;-6.288;2023-08-06T09:54:12;101767.28;;;21.90
74750;BMP280;63269;53.330;-6.288;2023-08-06T09:56:37;101767.59;;;21.92
74750;BMP280;63269;53.330;-6.288;2023-08-06T09:59:06;101766.03;;;21.95
74750;BMP280;63269;53.330;-6.288;2023-08-06T10:01:35;101766.03;;;21.95
74750;BMP280;63269;53.330;-6.288;2023-08-06T10:04:05;101769.03;;;21.97
74750;BMP280;63269;53.330;-6.288;2023-08-06T10:06:35;101771.69;;;21.97
74750;BMP280;63269;53.330;-6.288;2023-08-06T10:09:02;101775.13;;;21.97
74750;BMP280;63269;53.330;-6.288;2023-08-06T10:11:30;101773.97;;;21.98
74750;BMP280;63269;53.330;-6.288;2023-08-06T10:14:11;101767.88;;;21.98
74750;BMP280;63269;53.330;-6.288;2023-08-06T10:16:39;101774.38;;;21.97
74750;BMP280;63269;53.330;-6.288;2023-08-06T10:19:07;101778.56;;;21.98
74750;BMP280;63269;53.330;-6.288;2023-08-06T10:21:34;101769.03;;;21.97
74750;BMP280;63269;53.330;-6.288;2023-08-06T10:23:59;101774.38;;;21.97
74750;BMP280;63269;53.330;-6.288;2023-08-06T10:26:27;101779.72;;;21.97
74750;BMP280;63269;53.330;-6.288;2023-08-06T10:28:53;101775.13;;;21.97
74750;BMP280;63269;53.330;-6.288;2023-08-06T10:31:18;101783.13;;;21.97
74750;BMP280;63269;53.330;-6.288;2023-08-06T10:33:47;101783.91;;;21.98
74750;BMP280;63269;53.330;-6.288;2023-08-06T10:36:14;101775.53;;;21.96
74750;BMP280;63269;53.330;-6.288;2023-08-06T10:38:48;101769.78;;;21.97
74750;BMP280;63269;53.330;-6.288;2023-08-06T10:41:27;101771.69;;;21.97
74750;BMP280;63269;53.330;-6.288;2023-08-06T10:44:05;101771.69;;;21.97
74750;BMP280;63269;53.330;-6.288;2023-08-06T10:46:32;101768.28;;;21.96
74750;BMP280;63269;53.330;-6.288;2023-08-06T10:48:58;101774.78;;;21.95
74750;BMP280;63269;53.330;-6.288;2023-08-06T10:51:23;101784.31;;;21.96
74750;BMP280;63269;53.330;-6.288;2023-08-06T10:53:50;101771.63;;;22.00
74750;BMP280;63269;53.330;-6.288;2023-08-06T10:58:43;101777.31;;;22.02
74750;BMP280;63269;53.330;-6.288;2023-08-06T11:01:10;101778.81;;;22.03
74750;BMP280;63269;53.330;-6.288;2023-08-06T11:03:36;101778.41;;;22.05
74750;BMP280;63269;53.330;-6.288;2023-08-06T11:06:01;101776.47;;;22.06
74750;BMP280;63269;53.330;-6.288;2023-08-06T11:08:33;101780.66;;;22.07
74750;BMP280;63269;53.330;-6.288;2023-08-06T11:11:12;101780.66;;;22.07
74750;BMP280;63269;53.330;-6.288;2023-08-06T11:13:48;101776.81;;;22.08
74750;BMP280;63269;53.330;-6.288;2023-08-06T11:16:15;101790.91;;;22.08
74750;BMP280;63269;53.330;-6.288;2023-08-06T11:18:42;101803.88;;;22.10
74750;BMP280;63269;53.330;-6.288;2023-08-06T11:21:08;101802.63;;;22.14
74750;BMP280;63269;53.330;-6.288;2023-08-06T11:23:35;101802.19;;;22.16
74750;BMP280;63269;53.330;-6.288;2023-08-06T11:26:00;101806.38;;;22.17
74750;BMP280;63269;53.330;-6.288;2023-08-06T11:28:26;101794.94;;;22.16
74750;BMP280;63269;53.330;-6.288;2023-08-06T11:30:52;101792.94;;;22.20
74750;BMP280;63269;53.330;-6.288;2023-08-06T11:35:48;101787.50;;;22.24
74750;BMP280;63269;53.330;-6.288;2023-08-06T11:38:14;101794.34;;;22.25
74750;BMP280;63269;53.330;-6.288;2023-08-06T11:40:39;101786.66;;;22.27
74750;BMP280;63269;53.330;-6.288;2023-08-06T11:43:08;101794.28;;;22.29
74750;BMP280;63269;53.330;-6.288;2023-08-06T11:45:35;101798.84;;;22.28
74750;BMP280;63269;53.330;-6.288;2023-08-06T11:48:00;101778.63;;;22.27
74750;BMP280;63269;53.330;-6.288;2023-08-06T11:50:27;101785.50;;;22.28
74750;BMP280;63269;53.330;-6.288;2023-08-06T11:52:56;101784.34;;;22.29
74750;BMP280;63269;53.330;-6.288;2023-08-06T11:55:23;101782.50;;;22.26
74750;BMP280;63269;53.330;-6.288;2023-08-06T11:57:48;101775.25;;;22.27
74750;BMP280;63269;53.330;-6.288;2023-08-06T12:00:14;101776.31;;;22.29
74750;BMP280;63269;53.330;-6.288;2023-08-06T12:02:44;101775.56;;;22.29
74750;BMP280;63269;53.330;-6.288;2023-08-06T12:07:45;101769.03;;;22.30
74750;BMP280;63269;53.330;-6.288;2023-08-06T12:10:13;101770.97;;;22.29
74750;BMP280;63269;53.330;-6.288;2023-08-06T12:12:38;101772.50;;;22.30
74750;BMP280;63269;53.330;-6.288;2023-08-06T12:15:05;101770.53;;;22.31
74750;BMP280;63269;53.330;-6.288;2023-08-06T12:17:31;101772.50;;;22.30
74750;BMP280;63269;53.330;-6.288;2023-08-06T12:19:57;101771.28;;;22.31
74750;BMP280;63269;53.330;-6.288;2023-08-06T12:22:23;101774.38;;;22.30
74750;BMP280;63269;53.330;-6.288;2023-08-06T12:24:48;101767.16;;;22.30
74750;BMP280;63269;53.330;-6.288;2023-08-06T12:27:14;101758.69;;;22.32
74750;BMP280;63269;53.330;-6.288;2023-08-06T12:29:45;101764.78;;;22.32
74750;BMP280;63269;53.330;-6.288;2023-08-06T12:32:11;101764.78;;;22.32
74750;BMP280;63269;53.330;-6.288;2023-08-06T12:34:41;101756.34;;;22.34
74750;BMP280;63269;53.330;-6.288;2023-08-06T12:37:07;101760.19;;;22.33
74750;BMP280;63269;53.330;-6.288;2023-08-06T12:39:33;101760.19;;;22.33
74750;BMP280;63269;53.330;-6.288;2023-08-06T12:42:00;101766.28;;;22.33
74750;BMP280;63269;53.330;-6.288;2023-08-06T12:44:26;101776.22;;;22.33
74750;BMP280;63269;53.330;-6.288;2023-08-06T12:46:52;101776.22;;;22.33
74750;BMP280;63269;53.330;-6.288;2023-08-06T12:49:18;101767.44;;;22.32
74750;BMP280;63269;53.330;-6.288;2023-08-06T12:51:46;101768.19;;;22.33
74750;BMP280;63269;53.330;-6.288;2023-08-06T12:54:12;101764.03;;;22.32
74750;BMP280;63269;53.330;-6.288;2023-08-06T12:56:37;101770.13;;;22.32
74750;BMP280;63269;53.330;-6.288;2023-08-06T12:59:02;101767.44;;;22.32
74750;BMP280;63269;53.330;-6.288;2023-08-06T13:01:28;101780.06;;;22.32
74750;BMP280;63269;53.330;-6.288;2023-08-06T13:03:53;101771.28;;;22.31
74750;BMP280;63269;53.330;-6.288;2023-08-06T13:06:19;101773.94;;;22.31
74750;BMP280;63269;53.330;-6.288;2023-08-06T13:08:44;101774.38;;;22.30
74750;BMP280;63269;53.330;-6.288;2023-08-06T13:11:10;101767.88;;;22.31
74750;BMP280;63269;53.330;-6.288;2023-08-06T13:13:35;101771.28;;;22.31
74750;BMP280;63269;53.330;-6.288;2023-08-06T13:16:01;101769.81;;;22.30
74750;BMP280;63269;53.330;-6.288;2023-08-06T13:18:26;101775.16;;;22.30
74750;BMP280;63269;53.330;-6.288;2023-08-06T13:20:55;101775.16;;;22.30
74750;BMP280;63269;53.330;-6.288;2023-08-06T13:23:21;101767.16;;;22.30
74750;BMP280;63269;53.330;-6.288;2023-08-06T13:25:46;101768.59;;;22.31
74750;BMP280;63269;53.330;-6.288;2023-08-06T13:28:12;101767.88;;;22.31
74750;BMP280;63269;53.330;-6.288;2023-08-06T13:30:39;101756.44;;;22.30
74750;BMP280;63269;53.330;-6.288;2023-08-06T13:33:10;101757.16;;;22.31
74750;BMP280;63269;53.330;-6.288;2023-08-06T13:35:36;101760.59;;;22.31
74750;BMP280;63269;53.330;-6.288;2023-08-06T13:38:01;101755.25;;;22.31
74750;BMP280;63269;53.330;-6.288;2023-08-06T13:40:28;101755.25;;;22.31
74750;BMP280;63269;53.330;-6.288;2023-08-06T13:42:55;101767.16;;;22.30
74750;BMP280;63269;53.330;-6.288;2023-08-06T13:45:20;101765.19;;;22.31
74750;BMP280;63269;53.330;-6.288;2023-08-06T13:47:46;101776.63;;;22.31